Airport View

Enter ICAO identifier to see the current METAR for that AWOS.

KFNL for example

KELO 251053Z AUTO 17004KT 10SM -RA OVC090 16/14 A2985

25 Jul 2014 11:22

Frequency: 132.025

Phone: 218-365-3814

Other Area AWOS: KCQM - KEVM - KCDD - KBFW

TAF AMD KHIB 250739Z 2508/2606 VRB03KT P6SM SCT050 BKN100 TEMPO 2510/2513 5SM -TSRA BR BKN035CB FM251500 19007KT P6SM VCSH SCT050 BKN100 FM260200 18004KT 4SM BR SCT015